createdAt,value
2022-12-01T00:00:12.694Z,26.00
2022-12-01T00:02:39.489Z,22.37
2022-12-01T00:05:06.299Z,22.13
2022-12-01T00:07:33.097Z,26.03
2022-12-01T00:10:18.159Z,22.07
2022-12-01T00:12:44.777Z,21.67
2022-12-01T00:15:11.646Z,23.20
2022-12-01T00:17:39.022Z,23.47
2022-12-01T00:20:07.160Z,21.83
2022-12-01T00:22:33.800Z,26.33
2022-12-01T00:25:00.549Z,24.87
2022-12-01T00:27:27.187Z,24.47
2022-12-01T00:29:53.884Z,28.83
2022-12-01T00:32:20.534Z,23.83
2022-12-01T00:34:47.179Z,22.67
2022-12-01T00:37:13.818Z,21.43
2022-12-01T00:39:40.445Z,28.17
2022-12-01T00:42:12.898Z,25.63
2022-12-01T00:44:40.088Z,23.83
2022-12-01T00:47:06.927Z,26.07
2022-12-01T00:49:33.595Z,24.40
2022-12-01T00:52:01.287Z,26.87
2022-12-01T00:54:28.364Z,25.13
2022-12-01T00:56:54.973Z,24.17
2022-12-01T00:59:21.639Z,24.43
2022-12-01T01:01:49.772Z,25.37
2022-12-01T01:04:16.719Z,26.90
2022-12-01T01:06:43.471Z,25.07
2022-12-01T01:09:11.137Z,26.73
2022-12-01T01:11:37.857Z,27.13
2022-12-01T01:14:05.303Z,23.67
2022-12-01T01:16:32.450Z,29.60
2022-12-01T01:18:59.598Z,25.43
2022-12-01T01:21:26.878Z,28.27
2022-12-01T01:23:55.053Z,25.13
2022-12-01T01:26:24.271Z,24.10
2022-12-01T01:28:51.442Z,24.27
2022-12-01T01:31:23.695Z,25.13
2022-12-01T01:33:50.443Z,26.53
2022-12-01T01:36:18.307Z,26.27
2022-12-01T01:38:45.207Z,28.17
2022-12-01T01:41:12.254Z,24.63
2022-12-01T01:43:49.381Z,26.33
2022-12-01T01:46:19.067Z,26.10
2022-12-01T01:48:53.389Z,26.80
2022-12-01T01:51:25.259Z,26.77
2022-12-01T01:53:56.438Z,25.60
2022-12-01T01:56:24.140Z,25.77
2022-12-01T01:58:52.275Z,26.73
2022-12-01T02:01:19.132Z,26.13
2022-12-01T02:03:47.387Z,24.30
2022-12-01T02:06:14.930Z,23.53
2022-12-01T02:08:41.573Z,25.60
2022-12-01T02:11:33.064Z,26.57
2022-12-01T02:14:25.341Z,28.17
2022-12-01T02:17:09.890Z,25.37
2022-12-01T02:20:14.407Z,23.73
2022-12-01T02:22:44.034Z,27.67
2022-12-01T02:25:18.342Z,28.40
2022-12-01T02:28:36.904Z,24.03
2022-12-01T02:31:15.172Z,27.60
2022-12-01T02:33:44.015Z,27.97
2022-12-01T02:36:19.570Z,27.83
2022-12-01T02:38:58.086Z,24.17
2022-12-01T02:41:27.445Z,24.90
2022-12-01T02:44:03.193Z,26.27
2022-12-01T02:46:35.559Z,27.60
2022-12-01T02:49:06.855Z,27.23
2022-12-01T02:51:37.319Z,27.63
2022-12-01T02:54:05.854Z,26.10
2022-12-01T02:56:32.548Z,24.23
2022-12-01T02:58:59.160Z,25.77
2022-12-01T03:02:02.988Z,25.87
2022-12-01T03:05:09.057Z,24.47
2022-12-01T03:07:45.761Z,28.43
2022-12-01T03:10:26.298Z,24.23
2022-12-01T03:13:05.046Z,22.83
2022-12-01T03:16:03.805Z,25.37
2022-12-01T03:18:42.347Z,22.47
2022-12-01T03:21:34.796Z,25.33
2022-12-01T03:24:06.464Z,25.73
2022-12-01T03:26:36.335Z,25.77
2022-12-01T03:29:08.259Z,24.00
2022-12-01T03:31:45.688Z,28.00
2022-12-01T03:34:18.037Z,26.80
2022-12-01T03:36:51.712Z,25.33
2022-12-01T03:39:23.925Z,27.43
2022-12-01T03:42:20.651Z,28.43
2022-12-01T03:44:55.236Z,26.00
2022-12-01T03:47:25.023Z,26.67
2022-12-01T03:49:54.026Z,24.80
2022-12-01T03:52:44.220Z,24.57
2022-12-01T03:55:31.967Z,25.17
2022-12-01T03:58:01.731Z,24.87
2022-12-01T04:00:29.539Z,25.30
2022-12-01T04:02:58.508Z,25.57
2022-12-01T04:05:26.551Z,25.40
2022-12-01T04:07:53.507Z,24.07
2022-12-01T04:10:20.233Z,27.13
2022-12-01T04:12:46.945Z,28.60
2022-12-01T04:15:14.959Z,27.03
2022-12-01T04:17:43.515Z,29.37
2022-12-01T04:20:15.064Z,25.30
2022-12-01T04:22:42.097Z,26.10
2022-12-01T04:25:09.813Z,27.13
2022-12-01T04:27:37.006Z,26.37
2022-12-01T04:30:05.310Z,26.50
2022-12-01T04:32:37.342Z,25.20
2022-12-01T04:35:04.117Z,22.50
2022-12-01T04:37:30.726Z,26.67
2022-12-01T04:39:57.307Z,27.70
2022-12-01T04:42:23.902Z,25.17
2022-12-01T04:44:50.567Z,25.73
2022-12-01T04:47:17.200Z,24.63
2022-12-01T04:49:43.862Z,26.33
2022-12-01T04:52:10.498Z,24.23
2022-12-01T04:54:37.166Z,25.93
2022-12-01T04:57:03.925Z,23.10
2022-12-01T04:59:30.621Z,27.07
2022-12-01T05:01:57.403Z,26.10
2022-12-01T05:04:24.431Z,23.00
2022-12-01T05:06:53.678Z,24.13
2022-12-01T05:09:21.334Z,24.13
2022-12-01T05:11:48.054Z,25.37
2022-12-01T05:14:14.689Z,24.40
2022-12-01T05:16:41.418Z,24.23
2022-12-01T05:19:26.591Z,24.43
2022-12-01T05:21:53.369Z,25.50
2022-12-01T05:24:21.324Z,25.07
2022-12-01T05:26:48.274Z,23.90
2022-12-01T05:29:15.095Z,25.90
2022-12-01T05:31:42.251Z,21.67
2022-12-01T05:34:09.486Z,21.70
2022-12-01T05:36:36.455Z,22.73
2022-12-01T05:39:04.011Z,25.80
2022-12-01T05:41:30.755Z,23.87
2022-12-01T05:43:57.516Z,24.80
2022-12-01T05:46:24.270Z,23.30
2022-12-01T05:48:51.034Z,23.80
2022-12-01T05:51:17.933Z,26.23
2022-12-01T05:53:45.423Z,24.13
2022-12-01T05:56:12.449Z,25.13
2022-12-01T05:58:39.152Z,23.60
2022-12-01T06:01:05.970Z,25.27
2022-12-01T06:03:32.608Z,24.73
2022-12-01T06:05:59.263Z,26.37
2022-12-01T06:08:25.939Z,23.97
2022-12-01T06:10:52.642Z,27.20
2022-12-01T06:13:19.322Z,26.07
2022-12-01T06:15:45.991Z,25.60
2022-12-01T06:18:12.748Z,26.73
2022-12-01T06:20:39.373Z,28.03
2022-12-01T06:23:06.047Z,27.57
2022-12-01T06:25:32.704Z,26.50
2022-12-01T06:27:59.538Z,29.03
2022-12-01T06:30:26.501Z,30.17
2022-12-01T06:32:53.288Z,29.40
2022-12-01T06:35:20.434Z,27.07
2022-12-01T06:37:47.087Z,27.73
2022-12-01T06:40:13.981Z,28.53
2022-12-01T06:42:40.620Z,28.60
2022-12-01T06:45:07.730Z,27.73
2022-12-01T06:47:34.803Z,30.03
2022-12-01T06:50:01.647Z,29.40
2022-12-01T06:52:28.518Z,31.30
2022-12-01T06:54:55.209Z,29.23
2022-12-01T06:57:23.964Z,32.33
2022-12-01T06:59:51.264Z,31.27
2022-12-01T07:02:18.268Z,28.63
2022-12-01T07:04:44.988Z,31.70
2022-12-01T07:07:12.179Z,29.47
2022-12-01T07:09:39.243Z,30.00
2022-12-01T07:12:06.334Z,38.17
2022-12-01T07:14:33.103Z,30.67
2022-12-01T07:16:59.919Z,30.13
2022-12-01T07:19:26.836Z,33.60
2022-12-01T07:21:53.434Z,31.47
2022-12-01T07:24:20.029Z,29.20
2022-12-01T07:26:47.932Z,29.73
2022-12-01T07:29:14.580Z,30.37
2022-12-01T07:31:41.350Z,30.43
2022-12-01T07:34:13.240Z,29.53
2022-12-01T07:36:39.924Z,28.33
2022-12-01T07:39:08.261Z,30.57
2022-12-01T07:41:35.547Z,31.77
2022-12-01T07:44:02.699Z,32.20
2022-12-01T07:46:29.507Z,27.60
2022-12-01T07:48:57.046Z,32.50
2022-12-01T07:51:25.212Z,31.90
2022-12-01T07:53:53.578Z,30.77
2022-12-01T07:56:21.182Z,30.63
2022-12-01T07:58:47.937Z,27.27
2022-12-01T08:01:17.404Z,34.43
2022-12-01T08:03:44.288Z,30.83
2022-12-01T08:06:11.888Z,32.37
2022-12-01T08:08:40.798Z,31.70
2022-12-01T08:11:12.521Z,34.00
2022-12-01T08:13:40.096Z,29.70
2022-12-01T08:16:09.166Z,34.70
2022-12-01T08:18:36.887Z,34.63
2022-12-01T08:21:04.753Z,31.27
2022-12-01T08:23:31.657Z,33.00
2022-12-01T08:26:07.008Z,32.83
2022-12-01T08:28:36.279Z,32.57
2022-12-01T08:31:21.247Z,32.30
2022-12-01T08:33:49.175Z,28.77
2022-12-01T08:36:16.158Z,31.17
2022-12-01T08:38:48.492Z,31.47
2022-12-01T08:41:15.971Z,32.43
2022-12-01T08:44:00.915Z,32.00
2022-12-01T08:46:33.398Z,30.77
2022-12-01T08:49:00.515Z,32.07
2022-12-01T08:51:28.004Z,28.93
2022-12-01T08:53:56.353Z,32.00
2022-12-01T08:56:31.860Z,34.23
2022-12-01T08:58:58.929Z,33.33
2022-12-01T09:01:26.352Z,32.20
2022-12-01T09:04:05.480Z,32.33
2022-12-01T09:06:35.123Z,28.93
2022-12-01T09:09:02.225Z,30.57
2022-12-01T09:11:28.919Z,33.03
2022-12-01T09:13:55.577Z,29.20
2022-12-01T09:16:22.393Z,31.37
2022-12-01T09:18:49.363Z,32.83
2022-12-01T09:21:22.557Z,32.87
2022-12-01T09:23:50.138Z,31.73
2022-12-01T09:26:19.100Z,32.73
2022-12-01T09:28:47.816Z,31.20
2022-12-01T09:31:16.153Z,30.97
2022-12-01T09:33:43.153Z,31.13
2022-12-01T09:36:11.101Z,33.53
2022-12-01T09:38:38.945Z,31.50
2022-12-01T09:41:19.096Z,30.53
2022-12-01T09:44:30.278Z,31.00
2022-12-01T09:47:14.493Z,32.63
2022-12-01T09:49:59.511Z,36.23
2022-12-01T09:52:28.728Z,34.33
2022-12-01T09:54:57.901Z,36.43
2022-12-01T09:57:37.465Z,34.47
2022-12-01T10:00:31.674Z,31.90
2022-12-01T10:03:09.740Z,32.10
2022-12-01T10:09:03.469Z,33.40
2022-12-01T10:11:39.501Z,29.40
2022-12-01T10:14:17.988Z,29.83
2022-12-01T10:17:04.267Z,29.73
2022-12-01T10:19:31.921Z,29.50
2022-12-01T10:22:23.731Z,30.33
2022-12-01T10:25:25.530Z,31.57
2022-12-01T10:28:05.142Z,29.23
2022-12-01T10:30:39.226Z,35.07
2022-12-01T10:33:24.769Z,31.10
2022-12-01T10:35:52.405Z,31.83
2022-12-01T10:38:35.282Z,29.77
2022-12-01T10:41:04.350Z,33.13
2022-12-01T10:43:52.359Z,31.23
2022-12-01T10:46:33.567Z,29.20
2022-12-01T10:49:09.011Z,32.10
2022-12-01T10:51:54.485Z,29.27
2022-12-01T10:54:23.866Z,30.97
2022-12-01T10:56:56.620Z,29.13
2022-12-01T10:59:37.813Z,30.77
2022-12-01T11:02:14.300Z,28.37
2022-12-01T11:04:45.962Z,28.10
2022-12-01T11:07:19.406Z,30.93
2022-12-01T11:10:02.783Z,28.93
2022-12-01T11:12:29.733Z,26.03
2022-12-01T11:14:57.541Z,30.13
2022-12-01T11:17:38.875Z,29.00
2022-12-01T11:20:30.160Z,27.07
2022-12-01T11:23:24.393Z,29.13
2022-12-01T11:25:59.119Z,28.87
2022-12-01T11:28:26.366Z,28.33
2022-12-01T11:31:02.498Z,30.83
2022-12-01T11:33:30.735Z,30.93
2022-12-01T11:35:57.544Z,28.43
2022-12-01T11:38:32.609Z,32.73
2022-12-01T11:40:59.432Z,34.57
2022-12-01T11:43:34.241Z,30.07
2022-12-01T11:46:07.718Z,27.20
2022-12-01T11:48:36.295Z,29.50
2022-12-01T11:51:31.946Z,26.03
2022-12-01T11:54:13.758Z,28.83
2022-12-01T11:56:41.767Z,27.47
2022-12-01T11:59:21.229Z,25.30
2022-12-01T12:02:03.530Z,27.37
2022-12-01T12:04:42.406Z,30.53
2022-12-01T12:07:26.441Z,24.47
2022-12-01T12:09:55.949Z,25.93
2022-12-01T12:12:48.232Z,27.97
2022-12-01T12:15:50.512Z,28.13
2022-12-01T12:18:43.748Z,26.33
2022-12-01T12:21:10.392Z,25.23
2022-12-01T12:23:40.008Z,28.13
2022-12-01T12:26:09.815Z,30.63
2022-12-01T12:28:45.652Z,26.23
2022-12-01T12:31:24.411Z,25.20
2022-12-01T12:34:19.155Z,29.80
2022-12-01T12:37:15.733Z,27.77
2022-12-01T12:40:08.115Z,24.00
2022-12-01T12:42:46.683Z,27.13
2022-12-01T12:45:36.872Z,23.83
2022-12-01T12:48:06.212Z,25.70
2022-12-01T12:50:40.037Z,26.93
2022-12-01T12:53:15.796Z,26.10
2022-12-01T12:55:48.162Z,24.87
2022-12-01T12:58:29.501Z,28.17
2022-12-01T13:01:01.438Z,23.97
2022-12-01T13:03:43.269Z,24.30
2022-12-01T13:06:28.415Z,24.20
2022-12-01T13:09:15.910Z,24.70
2022-12-01T13:11:59.579Z,23.53
2022-12-01T13:14:38.427Z,24.57
2022-12-01T13:17:38.502Z,23.40
2022-12-01T13:20:06.658Z,26.27
2022-12-01T13:22:35.772Z,26.20
2022-12-01T13:25:04.113Z,26.87
2022-12-01T13:27:38.334Z,26.37
2022-12-01T13:30:05.803Z,24.73
2022-12-01T13:32:36.737Z,27.03
2022-12-01T13:35:25.072Z,29.40
2022-12-01T13:37:52.066Z,27.37
2022-12-01T13:40:30.556Z,28.23
2022-12-01T13:43:05.459Z,26.20
2022-12-01T13:45:40.535Z,26.90
2022-12-01T13:48:27.629Z,29.33
2022-12-01T13:51:05.221Z,32.83
2022-12-01T13:53:37.145Z,27.80
2022-12-01T13:56:24.148Z,28.63
2022-12-01T13:58:53.780Z,27.77
2022-12-01T14:01:20.890Z,23.03
2022-12-01T14:03:57.355Z,26.00
2022-12-01T14:06:36.046Z,25.83
2022-12-01T14:09:25.524Z,26.57
2022-12-01T14:12:00.476Z,29.03
2022-12-01T14:14:34.539Z,32.13
2022-12-01T14:17:03.255Z,22.23
2022-12-01T14:19:32.949Z,28.97
2022-12-01T14:22:01.515Z,26.63
2022-12-01T14:24:36.065Z,26.10
2022-12-01T14:27:04.863Z,25.20
2022-12-01T14:29:38.851Z,28.47
2022-12-01T14:32:19.395Z,26.93
2022-12-01T14:34:50.097Z,23.90
2022-12-01T14:37:20.888Z,26.93
2022-12-01T14:39:57.516Z,25.07
2022-12-01T14:43:01.442Z,25.33
2022-12-01T14:45:51.934Z,25.13
2022-12-01T14:48:34.661Z,25.83
2022-12-01T14:51:22.435Z,25.23
2022-12-01T14:53:51.981Z,24.47
2022-12-01T14:56:20.750Z,23.53
2022-12-01T14:58:56.585Z,24.63
2022-12-01T15:01:24.252Z,23.47
2022-12-01T15:03:56.811Z,25.27
2022-12-01T15:06:29.372Z,23.63
2022-12-01T15:12:04.679Z,26.20
2022-12-01T15:14:37.713Z,24.10
2022-12-01T15:17:08.956Z,23.20
2022-12-01T15:19:41.168Z,25.23
2022-12-01T15:22:17.841Z,23.47
2022-12-01T15:24:45.739Z,25.73
2022-12-01T15:27:30.301Z,24.40
2022-12-01T15:30:06.232Z,25.83
2022-12-01T15:32:38.255Z,21.70
2022-12-01T15:35:07.328Z,25.47
2022-12-01T15:37:44.575Z,24.13
2022-12-01T15:43:14.565Z,26.83
2022-12-01T15:46:13.346Z,24.47
2022-12-01T15:48:41.654Z,25.80
2022-12-01T15:51:18.864Z,24.77
2022-12-01T15:53:54.057Z,24.90
2022-12-01T15:56:40.975Z,24.70
2022-12-01T15:59:14.008Z,23.00
2022-12-01T16:01:43.520Z,24.10
2022-12-01T16:04:19.606Z,24.90
2022-12-01T16:07:05.289Z,25.87
2022-12-01T16:09:36.924Z,28.10
2022-12-01T16:12:04.604Z,29.67
2022-12-01T16:14:32.379Z,24.33
2022-12-01T16:17:00.005Z,26.23
2022-12-01T16:19:32.312Z,25.13
2022-12-01T16:22:20.224Z,26.70
2022-12-01T16:24:55.235Z,25.27
2022-12-01T16:27:26.223Z,22.27
2022-12-01T16:29:58.762Z,26.50
2022-12-01T16:32:34.067Z,24.73
2022-12-01T16:35:01.213Z,25.93
2022-12-01T16:37:28.582Z,28.43
2022-12-01T16:39:55.489Z,26.63
2022-12-01T16:42:22.635Z,27.87
2022-12-01T16:44:51.267Z,25.03
2022-12-01T16:47:25.336Z,26.87
2022-12-01T16:49:53.062Z,27.83
2022-12-01T16:55:20.790Z,26.33
2022-12-01T16:57:47.470Z,24.67
2022-12-01T17:00:14.639Z,26.73
2022-12-01T17:02:41.414Z,28.70
2022-12-01T17:05:10.576Z,29.73
2022-12-01T17:07:37.369Z,24.50
2022-12-01T17:10:05.485Z,27.50
2022-12-01T17:12:32.136Z,28.40
2022-12-01T17:14:58.853Z,26.33
2022-12-01T17:17:25.574Z,26.93
2022-12-01T17:19:52.952Z,26.67
2022-12-01T17:22:20.085Z,28.30
2022-12-01T17:24:46.905Z,28.93
2022-12-01T17:27:13.839Z,27.20
2022-12-01T17:29:44.532Z,26.90
2022-12-01T17:32:13.711Z,29.03
2022-12-01T17:34:40.662Z,25.87
2022-12-01T17:37:07.891Z,31.20
2022-12-01T17:39:34.939Z,28.80
2022-12-01T17:42:01.618Z,27.33
2022-12-01T17:44:28.386Z,27.77
2022-12-01T17:46:55.150Z,23.37
2022-12-01T17:49:22.416Z,26.63
2022-12-01T17:51:49.224Z,27.00
2022-12-01T17:54:16.262Z,26.80
2022-12-01T17:56:43.208Z,29.10
2022-12-01T17:59:09.936Z,25.67
2022-12-01T18:01:36.891Z,25.27
2022-12-01T18:04:04.038Z,23.57
2022-12-01T18:06:30.725Z,23.13
2022-12-01T18:08:58.851Z,25.40
2022-12-01T18:11:25.637Z,21.97
2022-12-01T18:13:52.813Z,23.93
2022-12-01T18:16:21.257Z,26.10
2022-12-01T18:18:48.806Z,25.73
2022-12-01T18:21:17.914Z,26.03
2022-12-01T18:23:56.763Z,22.67
2022-12-01T18:26:24.416Z,27.10
2022-12-01T18:29:05.141Z,24.37
2022-12-01T18:31:32.957Z,22.00
2022-12-01T18:34:02.988Z,28.47
2022-12-01T18:36:31.517Z,24.40
2022-12-01T18:38:59.864Z,24.57
2022-12-01T18:41:27.078Z,25.03
2022-12-01T18:43:54.140Z,23.23
2022-12-01T18:46:21.541Z,23.73
2022-12-01T18:48:51.505Z,25.53
2022-12-01T18:51:19.292Z,24.47
2022-12-01T18:53:46.178Z,25.50
2022-12-01T18:56:15.350Z,24.67
2022-12-01T18:58:42.937Z,22.93
2022-12-01T19:01:32.200Z,19.33
2022-12-01T19:03:59.799Z,22.80
2022-12-01T19:06:27.744Z,23.30
2022-12-01T19:08:55.040Z,22.97
2022-12-01T19:11:21.874Z,22.67
2022-12-01T19:13:48.872Z,21.07
2022-12-01T19:16:18.415Z,23.10
2022-12-01T19:18:45.277Z,21.83
2022-12-01T19:21:14.612Z,22.77
2022-12-01T19:23:41.664Z,22.10
2022-12-01T19:26:12.016Z,24.27
2022-12-01T19:28:40.329Z,24.63
2022-12-01T19:31:09.038Z,24.20
2022-12-01T19:33:35.929Z,22.57
2022-12-01T19:36:11.576Z,23.00
2022-12-01T19:38:41.072Z,24.70
2022-12-01T19:41:09.159Z,25.17
2022-12-01T19:43:36.336Z,20.30
2022-12-01T19:46:08.146Z,22.83
2022-12-01T19:48:35.335Z,25.37
2022-12-01T19:51:02.838Z,24.57
2022-12-01T19:53:33.594Z,23.80
2022-12-01T19:56:04.853Z,23.03
2022-12-01T19:58:34.816Z,23.50
2022-12-01T20:01:12.878Z,22.23
2022-12-01T20:03:40.694Z,25.50
2022-12-01T20:06:13.056Z,25.13
2022-12-01T20:08:52.452Z,25.10
2022-12-01T20:11:19.293Z,23.13
2022-12-01T20:13:46.981Z,24.13
2022-12-01T20:16:16.459Z,25.07
2022-12-01T20:18:43.725Z,24.80
2022-12-01T20:21:16.409Z,24.93
2022-12-01T20:23:45.244Z,22.57
2022-12-01T20:26:12.497Z,25.30
2022-12-01T20:28:40.279Z,23.23
2022-12-01T20:31:16.856Z,26.50
2022-12-01T20:33:43.970Z,22.53
2022-12-01T20:36:11.020Z,25.40
2022-12-01T20:38:38.491Z,27.07
2022-12-01T20:41:06.320Z,24.40
2022-12-01T20:43:34.197Z,27.67
2022-12-01T20:46:02.071Z,23.73
2022-12-01T20:48:29.445Z,28.10
2022-12-01T20:50:56.309Z,25.50
2022-12-01T20:53:23.061Z,26.23
2022-12-01T20:55:49.932Z,22.43
2022-12-01T20:58:16.625Z,26.10
2022-12-01T21:00:46.758Z,28.87
2022-12-01T21:03:14.299Z,28.97
2022-12-01T21:05:43.182Z,24.97
2022-12-01T21:08:12.300Z,23.03
2022-12-01T21:10:44.897Z,24.10
2022-12-01T21:13:41.879Z,24.80
2022-12-01T21:16:28.701Z,26.70
2022-12-01T21:19:09.546Z,22.63
2022-12-01T21:21:40.979Z,24.93
2022-12-01T21:24:07.590Z,27.23
2022-12-01T21:26:36.374Z,23.23
2022-12-01T21:29:18.670Z,27.13
2022-12-01T21:31:46.623Z,28.40
2022-12-01T21:34:18.381Z,25.23
2022-12-01T21:36:47.683Z,23.07
2022-12-01T21:39:17.353Z,26.93
2022-12-01T21:41:44.290Z,27.40
2022-12-01T21:44:17.687Z,26.93
2022-12-01T21:46:44.747Z,26.57
2022-12-01T21:49:16.347Z,27.40
2022-12-01T21:51:43.633Z,23.00
2022-12-01T21:54:15.444Z,24.27
2022-12-01T21:56:42.712Z,26.90
2022-12-01T21:59:23.612Z,26.23
2022-12-01T22:01:56.086Z,25.97
2022-12-01T22:04:30.345Z,25.50
2022-12-01T22:06:58.425Z,27.67
2022-12-01T22:09:34.325Z,27.00
2022-12-01T22:12:10.071Z,28.03
2022-12-01T22:14:36.983Z,29.00
2022-12-01T22:17:06.425Z,27.13
2022-12-01T22:19:37.143Z,27.40
2022-12-01T22:22:09.824Z,26.47
2022-12-01T22:24:44.138Z,26.70
2022-12-01T22:27:28.969Z,29.30
2022-12-01T22:30:18.931Z,28.00
2022-12-01T22:33:03.606Z,29.67
2022-12-01T22:35:43.006Z,28.10
2022-12-01T22:38:17.336Z,28.60
2022-12-01T22:40:53.288Z,26.13
2022-12-01T22:43:24.712Z,24.57
2022-12-01T22:46:19.010Z,25.40
2022-12-01T22:48:58.993Z,29.07
2022-12-01T22:51:36.570Z,29.67
2022-12-01T22:54:15.116Z,26.63
2022-12-01T22:56:44.497Z,24.53
2022-12-01T22:59:28.134Z,26.83
2022-12-01T23:02:00.280Z,26.43
2022-12-01T23:04:28.063Z,28.50
2022-12-01T23:07:01.930Z,30.60
2022-12-01T23:09:38.428Z,26.27
2022-12-01T23:12:21.384Z,28.37
2022-12-01T23:14:54.534Z,29.17
2022-12-01T23:17:21.222Z,26.73
2022-12-01T23:19:51.210Z,30.20
2022-12-01T23:22:18.048Z,29.90
2022-12-01T23:24:45.428Z,31.70
2022-12-01T23:27:12.627Z,29.67
2022-12-01T23:29:39.366Z,29.97
2022-12-01T23:32:06.275Z,28.13
2022-12-01T23:34:34.396Z,27.53
2022-12-01T23:37:01.657Z,29.80
2022-12-01T23:39:35.123Z,26.50
2022-12-01T23:42:03.387Z,27.80
2022-12-01T23:44:45.150Z,28.40
2022-12-01T23:47:26.618Z,26.83
2022-12-01T23:50:00.584Z,30.37
2022-12-01T23:52:33.527Z,27.87
2022-12-01T23:55:00.455Z,29.80
2022-12-01T23:57:27.459Z,27.63
2022-12-01T23:59:58.283Z,26.73
